CheckWX is a tool to help pilots better visualize weather data.  It is not intended as a substitute for an official pre-flight weather briefing.

20:56:17 UTC

VLSK TAF
Savannakhet Airport
Lao People’s Democratic Republic
TAF VLSK 221700Z 2218/2318 27004KT 7000 SCT020 SCT100 TEMPO 2218/2222 3000 BR FEW040 SCT100

Mar-22@
18:00 UTC

Mar-22 @ 18:00 UTC

Mar-23@
18:00 UTC

Mar-23 @ 18:00 UTC

TAF VLSK 221700Z 2218/2318 27004KT 7000 SCT020 SCT100
Wind
  • 270° at 4 KTS
Cloud Levels
  • Scattered at 2,000' AGL
  • Scattered at 10,000' AGL

Mar-22@
18:00 UTC

Mar-22 @ 18:00 UTC

Mar-22@
22:00 UTC

Mar-22 @ 22:00 UTC

TEMPO 2218/2222 3000 BR FEW040 SCT100

Temporary

Temporary Changes expected for less than half the time period

Conditions
Mist
Cloud Levels
  • Few at 4,000' AGL
  • Scattered at 10,000' AGL